createdAt,value
2023-03-01T00:00:36.347Z,17.90
2023-03-01T00:01:38.641Z,17.90
2023-03-01T00:02:41.060Z,17.90
2023-03-01T00:03:43.746Z,17.90
2023-03-01T00:04:46.326Z,17.90
2023-03-01T00:05:48.665Z,17.80
2023-03-01T00:06:51.168Z,17.80
2023-03-01T00:07:54.559Z,17.80
2023-03-01T00:08:56.964Z,17.80
2023-03-01T00:09:59.338Z,17.80
2023-03-01T00:11:22.888Z,17.80
2023-03-01T00:12:25.289Z,17.30
2023-03-01T00:13:27.576Z,16.70
2023-03-01T00:14:29.916Z,16.60
2023-03-01T00:15:32.960Z,16.60
2023-03-01T00:16:40.418Z,16.70
2023-03-01T00:17:43.048Z,16.80
2023-03-01T00:18:46.173Z,16.80
2023-03-01T00:19:48.471Z,16.90
2023-03-01T00:20:54.880Z,16.90
2023-03-01T00:21:57.250Z,16.90
2023-03-01T00:22:59.570Z,16.90
2023-03-01T00:24:02.599Z,16.90
2023-03-01T00:25:05.486Z,16.90
2023-03-01T00:26:10.633Z,16.90
2023-03-01T00:27:15.197Z,16.90
2023-03-01T00:28:17.918Z,16.60
2023-03-01T00:29:20.246Z,16.10
2023-03-01T00:30:22.664Z,16.00
2023-03-01T00:31:27.945Z,15.80
2023-03-01T00:32:30.382Z,15.80
2023-03-01T00:33:33.009Z,15.60
2023-03-01T00:34:35.383Z,15.40
2023-03-01T00:35:37.760Z,15.00
2023-03-01T00:36:40.801Z,15.30
2023-03-01T00:37:43.234Z,15.70
2023-03-01T00:38:46.694Z,16.00
2023-03-01T00:39:49.721Z,16.20
2023-03-01T00:40:52.388Z,16.30
2023-03-01T00:41:54.844Z,16.40
2023-03-01T00:42:57.168Z,16.50
2023-03-01T00:43:59.624Z,16.70
2023-03-01T00:45:01.983Z,16.80
2023-03-01T00:46:10.667Z,16.90
2023-03-01T00:47:13.169Z,17.00
2023-03-01T00:48:15.486Z,17.00
2023-03-01T00:49:17.835Z,17.00
2023-03-01T00:50:21.314Z,17.00
2023-03-01T00:51:26.643Z,17.00
2023-03-01T00:52:29.280Z,17.00
2023-03-01T00:53:31.615Z,17.00
2023-03-01T00:54:34.079Z,17.00
2023-03-01T00:55:37.263Z,17.00
2023-03-01T00:56:39.688Z,17.00
2023-03-01T00:57:42.038Z,17.00
2023-03-01T00:58:44.784Z,17.00
2023-03-01T00:59:47.140Z,17.00
2023-03-01T01:00:49.548Z,17.00
2023-03-01T01:01:52.102Z,17.00
2023-03-01T01:02:54.647Z,17.00
2023-03-01T01:04:00.573Z,17.10
2023-03-01T01:05:03.014Z,17.10
2023-03-01T01:06:10.209Z,17.10
2023-03-01T01:07:12.665Z,17.10
2023-03-01T01:08:15.084Z,17.10
2023-03-01T01:09:18.645Z,17.10
2023-03-01T01:10:21.234Z,17.20
2023-03-01T01:11:25.610Z,17.20
2023-03-01T01:12:28.754Z,17.20
2023-03-01T01:13:31.193Z,17.30
2023-03-01T01:14:33.724Z,17.30
2023-03-01T01:15:36.156Z,17.40
2023-03-01T01:16:38.696Z,17.40
2023-03-01T01:17:41.875Z,17.40
2023-03-01T01:18:45.079Z,17.40
2023-03-01T01:19:47.432Z,17.40
2023-03-01T01:20:49.878Z,17.50
2023-03-01T01:21:52.611Z,17.60
2023-03-01T01:22:55.125Z,17.50
2023-03-01T01:23:57.893Z,17.50
2023-03-01T01:25:00.397Z,17.60
2023-03-01T01:26:23.861Z,17.70
2023-03-01T01:27:26.250Z,17.80
2023-03-01T01:28:28.655Z,17.80
2023-03-01T01:29:30.966Z,17.80
2023-03-01T01:30:33.480Z,17.80
2023-03-01T01:31:37.802Z,17.70
2023-03-01T01:32:40.310Z,17.60
2023-03-01T01:33:44.056Z,17.60
2023-03-01T01:34:47.573Z,17.60
2023-03-01T01:35:50.416Z,17.40
2023-03-01T01:36:57.022Z,16.70
2023-03-01T01:37:59.565Z,15.90
2023-03-01T01:39:02.004Z,15.50
2023-03-01T01:40:05.349Z,15.10
2023-03-01T01:41:08.385Z,14.70
2023-03-01T01:42:20.211Z,15.00
2023-03-01T01:43:29.706Z,15.50
2023-03-01T01:44:34.658Z,16.00
2023-03-01T01:45:37.822Z,16.30
2023-03-01T01:46:53.685Z,16.70
2023-03-01T01:47:59.713Z,17.00
2023-03-01T01:49:10.838Z,17.20
2023-03-01T01:50:19.531Z,17.40
2023-03-01T01:51:28.253Z,17.60
2023-03-01T01:52:35.542Z,17.80
2023-03-01T01:53:39.239Z,18.00
2023-03-01T01:54:44.931Z,18.20
2023-03-01T01:55:52.799Z,18.30
2023-03-01T01:57:03.552Z,18.40
2023-03-01T01:58:09.230Z,18.50
2023-03-01T01:59:13.041Z,18.60
2023-03-01T02:00:22.079Z,18.60
2023-03-01T02:01:24.618Z,18.70
2023-03-01T02:02:27.959Z,18.80
2023-03-01T02:03:38.461Z,18.80
2023-03-01T02:04:42.025Z,18.90
2023-03-01T02:06:04.270Z,18.90
2023-03-01T02:07:16.069Z,19.00
2023-03-01T02:08:20.453Z,19.00
2023-03-01T02:09:24.084Z,19.00
2023-03-01T02:10:27.760Z,19.00
2023-03-01T02:11:32.320Z,19.00
2023-03-01T02:12:36.944Z,19.10
2023-03-01T02:13:39.469Z,19.10
2023-03-01T02:14:43.837Z,19.10
2023-03-01T02:15:47.656Z,19.10
2023-03-01T02:16:50.632Z,19.10
2023-03-01T02:17:54.081Z,19.10
2023-03-01T02:18:57.034Z,19.20
2023-03-01T02:20:33.397Z,18.50
2023-03-01T02:21:51.287Z,17.80
2023-03-01T02:22:55.480Z,17.20
2023-03-01T02:24:02.497Z,17.50
2023-03-01T02:25:09.493Z,17.80
2023-03-01T02:26:24.539Z,18.10
2023-03-01T02:27:39.431Z,18.30
2023-03-01T02:28:44.810Z,18.50
2023-03-01T02:29:48.618Z,18.70
2023-03-01T02:31:10.198Z,18.80
2023-03-01T02:32:14.877Z,18.80
2023-03-01T02:33:17.446Z,18.90
2023-03-01T02:34:25.976Z,19.00
2023-03-01T02:35:33.462Z,19.00
2023-03-01T02:36:47.314Z,19.10
2023-03-01T02:37:50.037Z,19.10
2023-03-01T02:38:57.112Z,19.10
2023-03-01T02:40:03.814Z,19.20
2023-03-01T02:41:08.077Z,19.10
2023-03-01T02:42:19.148Z,19.20
2023-03-01T02:43:26.652Z,19.20
2023-03-01T02:44:29.239Z,19.20
2023-03-01T02:45:31.591Z,19.20
2023-03-01T02:46:34.385Z,19.30
2023-03-01T02:47:38.352Z,19.30
2023-03-01T02:48:46.641Z,19.30
2023-03-01T02:49:49.227Z,19.30
2023-03-01T02:50:54.491Z,18.40
2023-03-01T02:52:09.931Z,17.30
2023-03-01T02:53:21.015Z,17.40
2023-03-01T02:54:40.910Z,17.80
2023-03-01T02:55:44.604Z,18.20
2023-03-01T02:56:51.048Z,18.40
2023-03-01T02:57:57.224Z,18.60
2023-03-01T02:59:01.671Z,18.70
2023-03-01T03:00:10.340Z,18.80
2023-03-01T03:01:16.021Z,18.90
2023-03-01T03:02:36.672Z,19.00
2023-03-01T03:03:43.558Z,19.00
2023-03-01T03:04:46.602Z,19.10
2023-03-01T03:05:49.359Z,19.10
2023-03-01T03:06:52.490Z,19.10
2023-03-01T03:07:56.638Z,19.20
2023-03-01T03:08:59.455Z,19.20
2023-03-01T03:10:03.170Z,19.20
2023-03-01T03:11:05.667Z,19.30
2023-03-01T03:12:09.197Z,19.30
2023-03-01T03:13:14.481Z,19.30
2023-03-01T03:14:18.709Z,19.30
2023-03-01T03:15:24.010Z,19.30
2023-03-01T03:16:26.438Z,19.40
2023-03-01T03:17:29.275Z,19.40
2023-03-01T03:18:32.046Z,19.40
2023-03-01T03:19:34.395Z,19.40
2023-03-01T03:20:40.297Z,19.40
2023-03-01T03:21:42.668Z,19.40
2023-03-01T03:22:45.485Z,19.40
2023-03-01T03:23:47.770Z,19.40
2023-03-01T03:24:50.148Z,19.40
2023-03-01T03:25:52.668Z,19.50
2023-03-01T03:26:55.041Z,19.40
2023-03-01T03:27:58.774Z,19.50
2023-03-01T03:29:01.875Z,19.50
2023-03-01T03:30:09.725Z,19.50
2023-03-01T03:31:12.108Z,19.50
2023-03-01T03:32:14.487Z,19.50
2023-03-01T03:33:16.879Z,19.50
2023-03-01T03:34:19.436Z,19.50
2023-03-01T03:35:25.511Z,19.50
2023-03-01T03:36:28.213Z,19.50
2023-03-01T03:37:49.348Z,19.50
2023-03-01T03:38:52.059Z,19.50
2023-03-01T03:39:55.721Z,19.60
2023-03-01T03:41:08.195Z,19.60
2023-03-01T03:42:11.106Z,19.60
2023-03-01T03:43:17.624Z,19.60
2023-03-01T03:44:20.426Z,19.60
2023-03-01T03:45:23.048Z,19.60
2023-03-01T03:46:26.968Z,19.60
2023-03-01T03:47:29.593Z,19.60
2023-03-01T03:48:35.652Z,19.60
2023-03-01T03:49:39.435Z,19.60
2023-03-01T03:50:42.847Z,19.60
2023-03-01T03:51:47.303Z,19.60
2023-03-01T03:52:50.643Z,19.60
2023-03-01T03:53:53.504Z,19.70
2023-03-01T03:54:56.177Z,19.70
2023-03-01T03:55:59.468Z,19.70
2023-03-01T03:57:02.031Z,19.20
2023-03-01T03:58:07.997Z,18.10
2023-03-01T03:59:12.266Z,17.30
2023-03-01T04:00:15.440Z,17.20
2023-03-01T04:01:19.079Z,17.60
2023-03-01T04:02:23.126Z,17.90
2023-03-01T04:03:26.949Z,18.10
2023-03-01T04:04:29.720Z,18.40
2023-03-01T04:05:32.474Z,18.50
2023-03-01T04:06:34.843Z,18.70
2023-03-01T04:07:38.720Z,18.90
2023-03-01T04:08:42.005Z,19.00
2023-03-01T04:09:45.158Z,19.10
2023-03-01T04:10:51.101Z,19.20
2023-03-01T04:11:53.683Z,19.20
2023-03-01T04:12:59.118Z,19.30
2023-03-01T04:14:01.767Z,19.30
2023-03-01T04:15:13.726Z,19.40
2023-03-01T04:16:18.577Z,19.40
2023-03-01T04:17:21.407Z,19.40
2023-03-01T04:18:26.380Z,19.40
2023-03-01T04:19:28.875Z,19.40
2023-03-01T04:20:35.734Z,19.50
2023-03-01T04:21:38.495Z,19.50
2023-03-01T04:22:43.680Z,19.50
2023-03-01T04:23:46.143Z,19.50
2023-03-01T04:24:48.724Z,19.50
2023-03-01T04:25:56.277Z,19.40
2023-03-01T04:26:59.026Z,18.30
2023-03-01T04:28:01.383Z,18.00
2023-03-01T04:29:04.188Z,18.30
2023-03-01T04:30:07.089Z,18.50
2023-03-01T04:31:16.604Z,18.70
2023-03-01T04:32:19.430Z,18.80
2023-03-01T04:33:22.370Z,19.00
2023-03-01T04:34:24.614Z,19.10
2023-03-01T04:35:27.141Z,19.20
2023-03-01T04:36:31.188Z,19.30
2023-03-01T04:37:34.158Z,19.30
2023-03-01T04:38:38.247Z,19.40
2023-03-01T04:39:46.355Z,19.40
2023-03-01T04:40:48.960Z,19.40
2023-03-01T04:41:51.462Z,19.40
2023-03-01T04:42:53.902Z,19.50
2023-03-01T04:43:56.294Z,19.50
2023-03-01T04:44:58.850Z,19.60
2023-03-01T04:46:07.112Z,19.60
2023-03-01T04:47:09.899Z,19.60
2023-03-01T04:48:12.282Z,19.60
2023-03-01T04:49:15.137Z,19.60
2023-03-01T04:50:21.275Z,19.60
2023-03-01T04:51:23.763Z,19.60
2023-03-01T04:52:26.069Z,19.70
2023-03-01T04:53:29.335Z,19.60
2023-03-01T04:54:33.682Z,19.70
2023-03-01T04:55:36.219Z,19.70
2023-03-01T04:56:38.634Z,19.70
2023-03-01T04:57:41.261Z,19.70
2023-03-01T04:58:44.199Z,19.70
2023-03-01T04:59:46.701Z,19.70
2023-03-01T05:00:49.025Z,19.80
2023-03-01T05:01:52.697Z,19.70
2023-03-01T05:02:57.674Z,19.80
2023-03-01T05:04:03.942Z,19.80
2023-03-01T05:05:07.027Z,19.80
2023-03-01T05:06:09.411Z,19.80
2023-03-01T05:07:13.924Z,19.80
2023-03-01T05:08:19.320Z,19.80
2023-03-01T05:09:21.633Z,19.80
2023-03-01T05:10:24.468Z,19.80
2023-03-01T05:11:28.937Z,19.90
2023-03-01T05:12:31.278Z,19.90
2023-03-01T05:13:34.644Z,19.90
2023-03-01T05:14:36.918Z,19.90
2023-03-01T05:15:39.410Z,19.90
2023-03-01T05:16:41.793Z,19.90
2023-03-01T05:17:44.556Z,19.90
2023-03-01T05:18:46.999Z,19.90
2023-03-01T05:19:49.278Z,19.90
2023-03-01T05:20:52.843Z,19.90
2023-03-01T05:22:07.193Z,19.90
2023-03-01T05:23:09.509Z,19.10
2023-03-01T05:24:12.638Z,18.50
2023-03-01T05:25:15.021Z,18.00
2023-03-01T05:26:28.317Z,17.60
2023-03-01T05:27:31.988Z,17.20
2023-03-01T05:28:35.055Z,17.40
2023-03-01T05:29:37.432Z,17.80
2023-03-01T05:30:40.092Z,18.10
2023-03-01T05:31:42.397Z,18.40
2023-03-01T05:32:47.187Z,18.60
2023-03-01T05:33:49.579Z,18.80
2023-03-01T05:34:53.097Z,19.00
2023-03-01T05:35:55.544Z,19.10
2023-03-01T05:36:58.040Z,19.20
2023-03-01T05:38:00.460Z,19.30
2023-03-01T05:39:02.949Z,19.40
2023-03-01T05:40:06.194Z,19.40
2023-03-01T05:41:15.346Z,19.50
2023-03-01T05:42:17.969Z,19.50
2023-03-01T05:43:20.520Z,19.60
2023-03-01T05:44:23.072Z,19.60
2023-03-01T05:45:27.278Z,19.60
2023-03-01T05:46:30.494Z,19.70
2023-03-01T05:47:32.994Z,19.70
2023-03-01T05:48:35.299Z,19.70
2023-03-01T05:49:39.668Z,19.70
2023-03-01T05:50:46.762Z,19.80
2023-03-01T05:51:51.130Z,19.80
2023-03-01T05:53:01.992Z,19.80
2023-03-01T05:54:06.759Z,19.80
2023-03-01T05:55:09.647Z,19.80
2023-03-01T05:56:11.953Z,19.90
2023-03-01T05:57:14.298Z,19.60
2023-03-01T05:58:19.925Z,19.40
2023-03-01T05:59:22.268Z,19.20
2023-03-01T06:00:24.769Z,19.00
2023-03-01T06:01:27.207Z,18.90
2023-03-01T06:02:30.258Z,18.80
2023-03-01T06:03:32.661Z,18.70
2023-03-01T06:04:35.011Z,18.90
2023-03-01T06:05:37.660Z,19.20
2023-03-01T06:06:40.423Z,19.30
2023-03-01T06:07:43.389Z,19.40
2023-03-01T06:08:45.706Z,19.50
2023-03-01T06:09:48.129Z,19.50
2023-03-01T06:10:50.448Z,19.60
2023-03-01T06:11:52.967Z,19.60
2023-03-01T06:12:55.523Z,19.70
2023-03-01T06:13:57.790Z,19.70
2023-03-01T06:15:00.681Z,19.70
2023-03-01T06:16:07.196Z,19.70
2023-03-01T06:17:09.585Z,19.80
2023-03-01T06:18:11.934Z,19.80
2023-03-01T06:19:14.246Z,19.80
2023-03-01T06:20:19.045Z,19.80
2023-03-01T06:21:21.339Z,19.90
2023-03-01T06:22:23.747Z,19.90
2023-03-01T06:23:26.204Z,19.90
2023-03-01T06:24:29.795Z,19.90
2023-03-01T06:25:32.261Z,19.90
2023-03-01T06:26:34.606Z,20.00
2023-03-01T06:27:37.074Z,20.00
2023-03-01T06:28:39.416Z,20.00
2023-03-01T06:29:42.689Z,20.00
2023-03-01T06:30:45.397Z,20.00
2023-03-01T06:31:47.810Z,20.00
2023-03-01T06:32:50.814Z,20.00
2023-03-01T06:33:53.189Z,20.10
2023-03-01T06:34:55.481Z,20.10
2023-03-01T06:35:58.073Z,19.90
2023-03-01T06:37:00.545Z,19.90
2023-03-01T06:38:04.622Z,19.90
2023-03-01T06:39:07.350Z,19.90
2023-03-01T06:40:12.559Z,20.00
2023-03-01T06:41:14.967Z,20.00
2023-03-01T06:42:17.506Z,20.00
2023-03-01T06:43:19.792Z,20.00
2023-03-01T06:44:22.221Z,20.10
2023-03-01T06:45:25.396Z,20.10
2023-03-01T06:46:27.765Z,20.10
2023-03-01T06:47:30.182Z,20.10
2023-03-01T06:48:32.589Z,20.10
2023-03-01T06:49:34.981Z,20.10
2023-03-01T06:50:38.633Z,20.10
2023-03-01T06:51:41.335Z,20.10
2023-03-01T06:52:45.627Z,20.10
2023-03-01T06:53:48.012Z,20.10
2023-03-01T06:54:50.355Z,20.10
2023-03-01T06:56:01.104Z,20.10
2023-03-01T06:57:03.565Z,20.10
2023-03-01T06:58:06.052Z,20.20
2023-03-01T06:59:08.502Z,20.10
2023-03-01T07:00:11.562Z,20.10
2023-03-01T07:01:13.879Z,20.10
2023-03-01T07:02:16.514Z,20.10
2023-03-01T07:03:18.860Z,20.10
2023-03-01T07:04:21.142Z,20.20
2023-03-01T07:05:23.452Z,20.20
2023-03-01T07:06:26.410Z,20.20
2023-03-01T07:07:28.772Z,20.20
2023-03-01T07:08:31.096Z,20.20
2023-03-01T07:09:33.423Z,20.20
2023-03-01T07:10:35.817Z,20.20
2023-03-01T07:11:38.361Z,20.20
2023-03-01T07:12:42.103Z,20.20
2023-03-01T07:13:44.493Z,20.20
2023-03-01T07:14:46.862Z,20.20
2023-03-01T07:15:49.400Z,20.20
2023-03-01T07:16:52.101Z,20.20
2023-03-01T07:17:54.851Z,20.20
2023-03-01T07:18:59.191Z,20.30
2023-03-01T07:20:02.098Z,20.30
2023-03-01T07:21:13.629Z,20.30
2023-03-01T07:22:16.045Z,20.30
2023-03-01T07:23:18.457Z,20.30
2023-03-01T07:24:21.000Z,20.30
2023-03-01T07:25:23.605Z,20.30
2023-03-01T07:26:26.416Z,20.30
2023-03-01T07:27:28.824Z,20.30
2023-03-01T07:28:31.746Z,20.30
2023-03-01T07:29:34.360Z,20.30
2023-03-01T07:30:36.680Z,20.30
2023-03-01T07:31:39.131Z,20.30
2023-03-01T07:32:41.722Z,20.30
2023-03-01T07:33:44.173Z,20.30
2023-03-01T07:34:46.501Z,20.30
2023-03-01T07:35:49.224Z,20.30
2023-03-01T07:36:51.674Z,20.30
2023-03-01T07:37:54.235Z,20.30
2023-03-01T07:38:56.768Z,20.30
2023-03-01T07:39:59.209Z,20.30
2023-03-01T07:41:03.729Z,20.30
2023-03-01T07:42:06.151Z,20.30
2023-03-01T07:43:09.277Z,20.30
2023-03-01T07:44:11.933Z,20.30
2023-03-01T07:45:14.796Z,20.30
2023-03-01T07:46:17.236Z,20.30
2023-03-01T07:47:19.583Z,20.30
2023-03-01T07:48:21.910Z,20.30
2023-03-01T07:49:24.421Z,20.30
2023-03-01T07:50:26.753Z,20.30
2023-03-01T07:51:29.164Z,20.30
2023-03-01T07:52:31.772Z,20.30
2023-03-01T07:53:37.599Z,20.30
2023-03-01T07:54:40.361Z,20.30
2023-03-01T07:55:42.677Z,20.30
2023-03-01T07:56:45.275Z,20.40
2023-03-01T07:57:47.630Z,20.40
2023-03-01T07:58:51.141Z,20.40
2023-03-01T07:59:53.586Z,20.40
2023-03-01T08:00:55.973Z,20.40
2023-03-01T08:01:58.446Z,20.40
2023-03-01T08:03:02.010Z,20.40
2023-03-01T08:04:07.972Z,20.40
2023-03-01T08:05:11.167Z,20.40
2023-03-01T08:06:15.634Z,20.40
2023-03-01T08:07:17.963Z,20.40
2023-03-01T08:08:20.237Z,20.40
2023-03-01T08:09:23.089Z,20.40
2023-03-01T08:10:25.426Z,20.40
2023-03-01T08:11:29.161Z,20.40
2023-03-01T08:12:31.534Z,20.40
2023-03-01T08:13:33.883Z,20.40
2023-03-01T08:14:36.562Z,20.40
2023-03-01T08:15:38.931Z,20.40
2023-03-01T08:16:41.426Z,20.40
2023-03-01T08:17:43.754Z,20.40
2023-03-01T08:18:46.173Z,20.40
2023-03-01T08:19:48.602Z,20.40
2023-03-01T08:20:50.954Z,20.40
2023-03-01T08:21:53.342Z,20.40
2023-03-01T08:22:55.863Z,20.40
2023-03-01T08:23:58.221Z,20.40
2023-03-01T08:25:00.652Z,20.40
2023-03-01T08:26:19.402Z,20.40
2023-03-01T08:27:21.766Z,20.40
2023-03-01T08:28:24.337Z,20.40
2023-03-01T08:29:26.967Z,20.40
2023-03-01T08:30:29.913Z,20.40
2023-03-01T08:31:36.566Z,20.40
2023-03-01T08:32:40.818Z,20.40
2023-03-01T08:33:43.449Z,20.40
2023-03-01T08:34:48.513Z,20.40
2023-03-01T08:35:51.087Z,20.40
2023-03-01T08:36:53.621Z,20.50
2023-03-01T08:37:56.003Z,20.40
2023-03-01T08:38:58.580Z,20.50
2023-03-01T08:40:01.786Z,20.50
2023-03-01T08:41:04.880Z,20.50
2023-03-01T08:42:07.215Z,20.50
2023-03-01T08:43:09.709Z,20.50
2023-03-01T08:44:14.320Z,20.50
2023-03-01T08:45:19.258Z,20.50
2023-03-01T08:46:21.685Z,20.50
2023-03-01T08:47:24.189Z,20.50
2023-03-01T08:48:28.340Z,20.50
2023-03-01T08:49:30.802Z,20.50
2023-03-01T08:50:33.121Z,20.40
2023-03-01T08:51:37.759Z,20.40
2023-03-01T08:52:40.167Z,20.40
2023-03-01T08:53:43.043Z,20.30
2023-03-01T08:54:45.561Z,20.40
2023-03-01T08:55:50.448Z,20.40
2023-03-01T08:56:53.048Z,20.40
2023-03-01T08:57:56.606Z,20.50
2023-03-01T08:58:59.080Z,20.50
2023-03-01T09:00:01.894Z,20.50
2023-03-01T09:01:12.129Z,20.50
2023-03-01T09:02:17.188Z,20.50
2023-03-01T09:03:19.650Z,20.50
2023-03-01T09:04:22.502Z,20.50
2023-03-01T09:05:24.897Z,20.50
2023-03-01T09:06:31.076Z,20.50
2023-03-01T09:07:34.534Z,20.50
2023-03-01T09:08:42.116Z,20.50
2023-03-01T09:09:44.541Z,20.50
2023-03-01T09:10:47.099Z,20.50
2023-03-01T09:11:51.049Z,20.50
2023-03-01T09:12:53.571Z,20.50
2023-03-01T09:13:56.517Z,20.50
2023-03-01T09:14:59.050Z,20.50
2023-03-01T09:16:06.309Z,20.50
2023-03-01T09:17:08.717Z,20.50
2023-03-01T09:18:11.112Z,20.50
2023-03-01T09:19:14.063Z,20.50
2023-03-01T09:20:16.776Z,20.50
2023-03-01T09:21:37.178Z,20.50
2023-03-01T09:22:41.243Z,20.40
2023-03-01T09:23:45.335Z,20.40
2023-03-01T09:24:47.693Z,20.40
2023-03-01T09:25:50.039Z,20.40
2023-03-01T09:26:56.196Z,20.40
2023-03-01T09:27:58.667Z,20.40
2023-03-01T09:29:01.139Z,20.40
2023-03-01T09:30:03.956Z,20.40
2023-03-01T09:31:06.606Z,20.40
2023-03-01T09:32:09.302Z,20.40
2023-03-01T09:33:15.543Z,20.40
2023-03-01T09:34:23.906Z,20.40
2023-03-01T09:35:26.431Z,20.40
2023-03-01T09:36:29.970Z,20.40
2023-03-01T09:37:38.352Z,20.40
2023-03-01T09:38:40.784Z,20.30
2023-03-01T09:39:43.266Z,20.40
2023-03-01T09:40:47.452Z,20.40
2023-03-01T09:42:03.046Z,20.40
2023-03-01T09:43:38.594Z,20.40
2023-03-01T09:44:55.895Z,20.50
2023-03-01T09:46:05.580Z,20.50
2023-03-01T09:47:18.076Z,20.50
2023-03-01T09:48:24.923Z,20.50
2023-03-01T09:49:31.509Z,20.50
2023-03-01T09:50:39.631Z,20.40
2023-03-01T09:51:44.213Z,20.40
2023-03-01T09:53:04.028Z,20.40
2023-03-01T09:54:09.342Z,20.50
2023-03-01T09:55:24.226Z,20.50
2023-03-01T09:56:38.103Z,20.50
2023-03-01T09:57:46.186Z,20.60
2023-03-01T09:58:54.479Z,20.50
2023-03-01T10:00:00.166Z,20.60
2023-03-01T10:01:35.860Z,20.60
2023-03-01T10:03:01.329Z,20.60
2023-03-01T10:04:39.849Z,20.60
2023-03-01T10:05:45.079Z,20.60
2023-03-01T10:07:03.549Z,20.60
2023-03-01T10:08:11.670Z,20.60
2023-03-01T10:09:17.940Z,20.60
2023-03-01T10:10:38.125Z,20.60
2023-03-01T10:11:46.035Z,20.60
2023-03-01T10:12:48.687Z,20.60
2023-03-01T10:14:02.447Z,20.60
2023-03-01T10:15:18.878Z,20.60
2023-03-01T10:16:41.123Z,20.60
2023-03-01T10:17:52.568Z,20.60
2023-03-01T10:19:03.422Z,20.60
2023-03-01T10:20:24.313Z,20.60
2023-03-01T10:21:29.406Z,20.60
2023-03-01T10:22:33.238Z,20.70
2023-03-01T10:23:37.725Z,20.70
2023-03-01T10:24:40.358Z,20.70
2023-03-01T10:25:58.000Z,20.70
2023-03-01T10:27:18.400Z,20.70
2023-03-01T10:28:48.706Z,20.70
2023-03-01T10:30:40.474Z,20.70
2023-03-01T10:31:48.475Z,20.70
2023-03-01T10:32:55.064Z,20.70
2023-03-01T10:33:58.142Z,20.70
2023-03-01T10:35:00.681Z,20.80
2023-03-01T10:36:03.610Z,20.70
2023-03-01T10:37:13.822Z,20.70
2023-03-01T10:38:17.556Z,20.80
2023-03-01T10:39:23.407Z,20.80
2023-03-01T10:40:25.946Z,20.80
2023-03-01T10:41:28.847Z,20.80
2023-03-01T10:42:39.681Z,20.70
2023-03-01T10:43:47.007Z,20.80
2023-03-01T10:44:50.474Z,20.80
2023-03-01T10:45:53.901Z,20.80
2023-03-01T10:47:02.585Z,20.80
2023-03-01T10:48:18.814Z,20.80
2023-03-01T10:49:23.886Z,20.80
2023-03-01T10:50:26.368Z,20.80
2023-03-01T10:51:28.806Z,20.80
2023-03-01T10:52:41.221Z,20.80
2023-03-01T10:53:49.511Z,20.70
2023-03-01T10:54:58.010Z,20.80
2023-03-01T10:56:07.453Z,20.80
2023-03-01T10:57:39.416Z,20.80
2023-03-01T10:59:20.176Z,20.70
2023-03-01T11:00:26.194Z,20.80
2023-03-01T11:01:33.854Z,20.80
2023-03-01T11:02:37.647Z,20.80
2023-03-01T11:03:40.416Z,20.80
2023-03-01T11:05:03.037Z,20.80
2023-03-01T11:06:21.653Z,20.90
2023-03-01T11:07:23.976Z,20.90
2023-03-01T11:08:38.172Z,20.90
2023-03-01T11:09:40.520Z,20.90
2023-03-01T11:10:42.911Z,20.90
2023-03-01T11:11:46.144Z,20.90
2023-03-01T11:12:48.633Z,20.90
2023-03-01T11:13:54.823Z,20.90
2023-03-01T11:14:57.859Z,20.90
2023-03-01T11:16:08.647Z,20.90
2023-03-01T11:17:18.981Z,21.00
2023-03-01T11:18:33.913Z,21.00
2023-03-01T11:19:48.848Z,21.00
2023-03-01T11:20:57.420Z,21.00
2023-03-01T11:22:14.549Z,20.90
2023-03-01T11:23:17.256Z,21.00
2023-03-01T11:24:20.687Z,21.00
2023-03-01T11:25:31.109Z,20.90
2023-03-01T11:26:40.406Z,20.90
2023-03-01T11:27:46.598Z,20.90
2023-03-01T11:28:54.629Z,20.90
2023-03-01T11:29:58.842Z,20.90
2023-03-01T11:31:13.708Z,20.90
2023-03-01T11:32:17.158Z,20.80
2023-03-01T11:33:41.392Z,20.80
2023-03-01T11:34:59.265Z,20.80
2023-03-01T11:36:08.290Z,20.80
2023-03-01T11:37:24.222Z,20.70
2023-03-01T11:38:28.788Z,20.70
2023-03-01T11:39:41.869Z,20.80
2023-03-01T11:40:56.045Z,20.70
2023-03-01T11:42:25.973Z,20.70
2023-03-01T11:43:46.464Z,20.60
2023-03-01T11:44:52.024Z,20.60
2023-03-01T11:46:16.468Z,20.70
2023-03-01T11:47:50.019Z,20.70
2023-03-01T11:49:19.980Z,20.70
2023-03-01T11:50:46.877Z,20.60
2023-03-01T11:52:19.487Z,20.60
2023-03-01T11:53:27.790Z,20.60
2023-03-01T11:54:39.915Z,20.60
2023-03-01T11:56:25.322Z,20.60
2023-03-01T11:57:44.510Z,20.60
2023-03-01T11:58:59.169Z,20.60
2023-03-01T12:00:13.471Z,20.60
2023-03-01T12:01:42.673Z,20.60
2023-03-01T12:02:53.633Z,20.60
2023-03-01T12:04:02.129Z,20.60
2023-03-01T12:05:33.185Z,20.60
2023-03-01T12:06:54.398Z,20.60
2023-03-01T12:08:16.353Z,20.60
2023-03-01T12:09:45.615Z,20.50
2023-03-01T12:11:05.876Z,20.50
2023-03-01T12:12:10.687Z,20.50
2023-03-01T12:13:19.017Z,20.50
2023-03-01T12:14:46.244Z,20.50
2023-03-01T12:16:00.775Z,20.40
2023-03-01T12:17:32.675Z,20.50
2023-03-01T12:19:08.336Z,20.30
2023-03-01T12:20:47.184Z,19.70
2023-03-01T12:22:20.926Z,19.20
2023-03-01T12:23:40.852Z,18.70
2023-03-01T12:24:58.536Z,18.50
2023-03-01T12:26:30.583Z,18.20
2023-03-01T12:27:44.868Z,18.00
2023-03-01T12:29:12.209Z,18.10
2023-03-01T12:30:23.518Z,17.90
2023-03-01T12:32:03.017Z,17.70
2023-03-01T12:33:33.303Z,17.60
2023-03-01T12:34:48.137Z,17.80
2023-03-01T12:36:16.496Z,17.80
2023-03-01T12:37:55.098Z,17.70
2023-03-01T12:39:21.237Z,17.50
2023-03-01T12:40:45.089Z,17.60
2023-03-01T12:42:11.776Z,17.70
2023-03-01T12:43:41.543Z,17.60
2023-03-01T12:44:51.057Z,17.60
2023-03-01T12:46:20.170Z,17.50
2023-03-01T12:47:50.304Z,17.30
2023-03-01T12:49:11.176Z,17.20
2023-03-01T12:50:26.656Z,17.30
2023-03-01T12:51:33.848Z,17.20
2023-03-01T12:52:45.070Z,17.30
2023-03-01T12:53:52.356Z,17.30
2023-03-01T12:54:59.145Z,17.30
2023-03-01T12:56:06.957Z,17.30
2023-03-01T12:57:19.177Z,17.40
2023-03-01T12:58:48.630Z,17.20
2023-03-01T13:00:10.682Z,17.30
2023-03-01T13:01:31.538Z,17.40
2023-03-01T13:02:50.833Z,17.40
2023-03-01T13:04:14.228Z,17.50
2023-03-01T13:05:25.295Z,17.60
2023-03-01T13:06:56.353Z,17.50
2023-03-01T13:08:17.988Z,17.50
2023-03-01T13:09:41.174Z,17.40
2023-03-01T13:11:04.480Z,17.30
2023-03-01T13:12:48.349Z,17.30
2023-03-01T13:13:52.610Z,17.30
2023-03-01T13:14:55.352Z,17.30
2023-03-01T13:15:58.589Z,17.10
2023-03-01T13:17:01.066Z,17.10
2023-03-01T13:18:12.838Z,17.20
2023-03-01T13:19:20.524Z,17.30
2023-03-01T13:20:32.241Z,17.30
2023-03-01T13:21:34.629Z,17.30
2023-03-01T13:22:49.776Z,17.10
2023-03-01T13:23:56.589Z,17.30
2023-03-01T13:25:15.811Z,17.70
2023-03-01T13:26:19.670Z,17.90
2023-03-01T13:27:26.018Z,18.20
2023-03-01T13:28:46.951Z,18.30
2023-03-01T13:29:54.579Z,18.50
2023-03-01T13:30:56.903Z,18.60
2023-03-01T13:32:00.129Z,18.70
2023-03-01T13:33:27.079Z,18.80
2023-03-01T13:34:47.343Z,18.90
2023-03-01T13:35:49.946Z,19.00
2023-03-01T13:36:52.332Z,19.10
2023-03-01T13:38:33.115Z,19.10
2023-03-01T13:39:41.348Z,19.30
2023-03-01T13:40:52.709Z,19.30
2023-03-01T13:41:55.825Z,19.30
2023-03-01T13:43:06.222Z,19.40
2023-03-01T13:44:35.472Z,19.40
2023-03-01T13:45:41.467Z,19.50
2023-03-01T13:46:45.445Z,19.50
2023-03-01T13:47:54.923Z,19.50
2023-03-01T13:48:58.162Z,19.60
2023-03-01T13:50:03.799Z,19.60
2023-03-01T13:51:10.555Z,19.60
2023-03-01T13:52:31.643Z,19.60
2023-03-01T13:53:42.844Z,19.60
2023-03-01T13:54:45.239Z,19.70
2023-03-01T13:55:52.888Z,19.70
2023-03-01T13:56:56.149Z,19.70
2023-03-01T13:58:02.162Z,19.70
2023-03-01T13:59:18.197Z,19.60
2023-03-01T14:00:40.837Z,19.60
2023-03-01T14:01:43.954Z,19.50
2023-03-01T14:02:46.363Z,19.30
2023-03-01T14:03:48.860Z,19.30
2023-03-01T14:04:58.767Z,19.30
2023-03-01T14:06:14.189Z,19.30
2023-03-01T14:07:25.272Z,19.20
2023-03-01T14:08:30.658Z,18.80
2023-03-01T14:09:36.482Z,18.60
2023-03-01T14:10:52.913Z,18.60
2023-03-01T14:12:05.444Z,18.40
2023-03-01T14:13:43.269Z,18.50
2023-03-01T14:15:00.212Z,18.70
2023-03-01T14:16:34.214Z,18.90
2023-03-01T14:17:45.182Z,18.90
2023-03-01T14:19:32.975Z,19.00
2023-03-01T14:20:54.372Z,19.00
2023-03-01T14:22:28.195Z,19.10
2023-03-01T14:23:30.611Z,19.20
2023-03-01T14:24:47.278Z,19.30
2023-03-01T14:25:58.366Z,19.40